Time;durP1;ratioP1;P1;durP2;ratioP2;P2;SDS_P1;SDS_P2;PMS_P1;PMS_P2;Temp;Humidity;BMP_temperature;BMP_pressure;BME280_temperature;BME280_humidity;BME280_pressure;Samples;Min_cycle;Max_cycle;Signal;HPM_P1;HPM_P2
2021/11/16 00:00:55;;;;;;;0.10;0.10;;;;;;;4.50;80.42;102764.16;5078793;28;20032;-72
2021/11/16 00:03:21;;;;;;;1.60;0.60;;;;;;;4.50;80.21;102766.72;5078818;28;20063;-73
2021/11/16 00:05:46;;;;;;;0.10;0.10;;;;;;;4.50;80.53;102753.75;5075794;28;20085;-73
2021/11/16 00:08:11;;;;;;;0.20;0.20;;;;;;;4.51;80.48;102752.97;5060829;28;20743;-72
2021/11/16 00:10:38;;;;;;;0.20;0.20;;;;;;;4.51;81.02;102750.38;5079114;28;20021;-72
2021/11/16 00:13:10;;;;;;;0.17;0.17;;;;;;;4.49;80.85;102745.06;5044449;28;20359;-73
2021/11/16 00:15:36;;;;;;;0.20;0.20;;;;;;;4.49;80.49;102741.56;5061544;28;20098;-71
2021/11/16 00:18:02;;;;;;;0.30;0.30;;;;;;;4.49;81.12;102739.88;5062182;28;20315;-72
2021/11/16 00:20:27;;;;;;;0.20;0.20;;;;;;;4.48;80.88;102745.84;5061437;28;20016;-71
2021/11/16 00:22:53;;;;;;;0.20;0.20;;;;;;;4.52;80.70;102734.97;5060686;28;20148;-71
2021/11/16 00:25:31;;;;;;;0.20;0.20;;;;;;;4.50;80.50;102736.50;5078582;28;20247;-73
2021/11/16 00:27:56;;;;;;;0.10;0.10;;;;;;;4.49;80.61;102734.69;5078281;28;20035;-71
2021/11/16 00:30:22;;;;;;;0.13;0.13;;;;;;;4.47;80.17;102727.53;5078011;28;20078;-71
2021/11/16 00:32:47;;;;;;;0.93;0.60;;;;;;;4.44;80.36;102725.63;5078863;28;20017;-70
2021/11/16 00:35:13;;;;;;;1.20;0.87;;;;;;;4.42;80.16;102731.47;5077370;28;20032;-71
2021/11/16 00:37:39;;;;;;;0.37;0.37;;;;;;;4.40;80.36;102731.31;5060967;28;20047;-72
2021/11/16 00:40:08;;;;;;;1.03;1.03;;;;;;;4.38;80.42;102731.19;5076542;28;20103;-72
2021/11/16 00:42:33;;;;;;;0.13;0.13;;;;;;;4.39;80.81;102727.84;5063678;28;20310;-72
2021/11/16 00:44:59;;;;;;;0.20;0.20;;;;;;;4.39;80.68;102724.31;5077810;28;20024;-72
2021/11/16 00:47:24;;;;;;;0.20;0.20;;;;;;;4.38;80.53;102717.31;5060692;28;20039;-71
2021/11/16 00:49:53;;;;;;;0.20;0.20;;;;;;;4.35;80.17;102720.56;5060073;28;20024;-71
2021/11/16 00:52:19;;;;;;;0.20;0.20;;;;;;;4.36;80.71;102724.06;5060145;28;20043;-72
2021/11/16 00:54:45;;;;;;;0.20;0.20;;;;;;;4.34;80.63;102715.22;5077878;28;20127;-71
2021/11/16 00:57:10;;;;;;;0.10;0.10;;;;;;;4.33;79.36;102716.94;5060452;28;20033;-72
2021/11/16 00:59:36;;;;;;;0.20;0.20;;;;;;;4.29;79.53;102725.22;5060313;28;20103;-72
2021/11/16 01:02:01;;;;;;;0.57;0.57;;;;;;;4.26;79.45;102731.06;5077630;28;20107;-72
2021/11/16 01:04:28;;;;;;;0.20;0.20;;;;;;;4.24;80.08;102736.91;5059001;28;20107;-71
2021/11/16 01:06:54;;;;;;;0.20;0.20;;;;;;;4.24;80.24;102740.41;5077878;28;20023;-71
2021/11/16 01:09:19;;;;;;;0.57;0.57;;;;;;;4.23;80.00;102737.69;5077595;28;20028;-72
2021/11/16 01:11:45;;;;;;;0.20;0.20;;;;;;;4.23;80.29;102732.50;5077827;28;20086;-72
2021/11/16 01:14:10;;;;;;;0.20;0.20;;;;;;;4.23;80.66;102738.59;5077442;28;20067;-73
2021/11/16 01:16:36;;;;;;;0.40;0.40;;;;;;;4.25;80.00;102736.13;5077471;28;20024;-72
2021/11/16 01:19:04;;;;;;;0.23;0.23;;;;;;;4.24;80.12;102734.31;5076732;28;20029;-72
2021/11/16 01:21:29;;;;;;;0.40;0.40;;;;;;;4.21;80.26;102731.44;5076929;28;20039;-71
2021/11/16 01:23:54;;;;;;;0.40;0.40;;;;;;;4.17;80.20;102735.47;5077190;28;20099;-71
2021/11/16 01:26:20;;;;;;;0.30;0.30;;;;;;;4.16;79.96;102733.66;5059871;28;20021;-71
2021/11/16 01:28:46;;;;;;;0.20;0.20;;;;;;;4.15;80.00;102730.94;5075891;28;20028;-72
2021/11/16 01:31:11;;;;;;;0.13;0.13;;;;;;;4.17;80.40;102726.81;5076769;28;20020;-72
2021/11/16 01:33:56;;;;;;;0.30;0.30;;;;;;;4.19;80.44;102723.56;5075960;28;20343;-72
2021/11/16 01:36:23;;;;;;;0.20;0.20;;;;;;;4.19;80.08;102723.56;5076825;28;20040;-72
2021/11/16 01:38:50;;;;;;;0.10;0.10;;;;;;;4.19;80.43;102723.56;5076999;28;20028;-72
2021/11/16 01:41:15;;;;;;;0.20;0.20;;;;;;;4.16;79.87;102718.09;5076522;28;20040;-71
2021/11/16 01:43:41;;;;;;;0.33;0.33;;;;;;;4.15;80.24;102712.78;5077265;28;20103;-72
2021/11/16 01:46:11;;;;;;;0.20;0.20;;;;;;;4.13;80.19;102710.06;5076248;28;20024;-72
2021/11/16 01:48:37;;;;;;;0.20;0.20;;;;;;;4.11;80.45;102706.44;5059735;28;20024;-71
2021/11/16 01:51:03;;;;;;;0.20;0.20;;;;;;;4.10;80.29;102705.53;5076023;28;20032;-71
2021/11/16 01:53:28;;;;;;;0.10;0.10;;;;;;;4.11;80.47;102709.03;5076132;28;20072;-72
2021/11/16 01:55:54;;;;;;;0.10;0.10;;;;;;;4.10;80.53;102709.78;5075463;28;20111;-72
2021/11/16 01:58:19;;;;;;;0.40;0.40;;;;;;;4.10;80.44;102699.41;5076762;28;20016;-72
2021/11/16 02:00:46;;;;;;;0.20;0.20;;;;;;;4.09;80.27;102701.13;5076077;28;20020;-72
2021/11/16 02:03:12;;;;;;;0.13;0.13;;;;;;;4.08;79.96;102696.72;5076168;28;20035;-71
2021/11/16 02:05:45;;;;;;;0.20;0.20;;;;;;;4.09;80.13;102701.13;5076780;28;20024;-71
2021/11/16 02:08:12;;;;;;;0.20;0.20;;;;;;;4.05;80.13;102701.63;5058625;28;20028;-73
2021/11/16 02:10:40;;;;;;;0.10;0.10;;;;;;;4.02;80.12;102688.41;5076614;28;20020;-74
2021/11/16 02:13:05;;;;;;;0.20;0.20;;;;;;;4.01;80.21;102694.38;5075864;28;20242;-70
2021/11/16 02:15:31;;;;;;;0.10;0.10;;;;;;;3.98;80.23;102694.09;5042573;28;20156;-71
2021/11/16 02:17:56;;;;;;;0.10;0.10;;;;;;;3.98;80.52;102687.25;5075884;28;20021;-72
2021/11/16 02:20:22;;;;;;;0.20;0.20;;;;;;;3.99;80.63;102683.88;5059373;28;20127;-71
2021/11/16 02:22:48;;;;;;;0.20;0.20;;;;;;;3.99;80.64;102681.28;5042800;28;20028;-72
2021/11/16 02:25:14;;;;;;;0.20;0.20;;;;;;;3.99;80.50;102685.56;5076151;28;20032;-71
2021/11/16 02:27:39;;;;;;;0.20;0.20;;;;;;;3.97;80.49;102675.06;5076521;28;20032;-72
2021/11/16 02:30:05;;;;;;;0.20;0.20;;;;;;;3.96;81.05;102675.84;5075801;28;20016;-72
2021/11/16 02:32:33;;;;;;;0.20;0.20;;;;;;;3.97;80.81;102669.88;5058620;28;20298;-71
2021/11/16 02:34:59;;;;;;;0.20;0.20;;;;;;;3.98;80.95;102665.59;5075655;28;20321;-71
2021/11/16 02:37:30;;;;;;;0.10;0.10;;;;;;;3.98;81.00;102665.59;5076520;28;20551;-73
2021/11/16 02:39:56;;;;;;;0.10;0.10;;;;;;;3.97;80.12;102668.97;5058585;28;20066;-72
2021/11/16 02:42:21;;;;;;;0.20;0.20;;;;;;;3.97;80.90;102662.09;5076223;28;20032;-72
2021/11/16 02:44:47;;;;;;;0.30;0.30;;;;;;;3.99;80.69;102670.91;5075970;28;20106;-72
2021/11/16 02:47:13;;;;;;;0.20;0.20;;;;;;;3.97;80.70;102662.09;5075775;28;20025;-72
2021/11/16 02:49:38;;;;;;;0.20;0.20;;;;;;;3.98;81.24;102666.50;5075592;28;20036;-71
2021/11/16 02:52:13;;;;;;;0.30;0.30;;;;;;;3.98;80.59;102665.59;5076033;28;20017;-71
2021/11/16 02:54:39;;;;;;;0.20;0.20;;;;;;;3.98;81.08;102674.28;5075962;28;20025;-73
2021/11/16 02:57:09;;;;;;;0.20;0.20;;;;;;;4.02;81.09;102674.53;5076214;28;20028;-72
2021/11/16 02:59:34;;;;;;;0.23;0.23;;;;;;;3.99;79.08;102675.22;5077053;28;20047;-73
2021/11/16 03:02:00;;;;;;;0.50;0.50;;;;;;;3.96;79.09;102678.44;5076679;28;20064;-72
2021/11/16 03:04:25;;;;;;;0.20;0.20;;;;;;;3.99;80.17;102675.22;5077064;28;20067;-70
2021/11/16 03:06:51;;;;;;;0.30;0.30;;;;;;;3.99;79.42;102668.31;5080674;28;20051;-72
2021/11/16 03:09:17;;;;;;;0.30;0.30;;;;;;;4.00;79.47;102674.44;5080690;28;20295;-72
2021/11/16 03:11:42;;;;;;;0.20;0.20;;;;;;;3.99;79.28;102670.91;5063254;28;20020;-71
2021/11/16 03:14:08;;;;;;;0.17;0.17;;;;;;;4.01;79.60;102672.72;5063077;28;20020;-73
2021/11/16 03:16:33;;;;;;;0.20;0.20;;;;;;;4.02;80.69;102669.34;5080807;28;20031;-73
2021/11/16 03:19:00;;;;;;;0.20;0.20;;;;;;;4.03;80.28;102664.31;5080010;28;20333;-72
2021/11/16 03:21:26;;;;;;;0.20;0.20;;;;;;;4.04;79.62;102662.63;5080543;28;20020;-71
2021/11/16 03:23:56;;;;;;;0.20;0.20;;;;;;;4.04;79.39;102662.63;5080398;28;20295;-72
2021/11/16 03:26:23;;;;;;;0.30;0.30;;;;;;;4.03;79.03;102669.47;5080692;28;20059;-72
2021/11/16 03:28:51;;;;;;;0.30;0.30;;;;;;;4.02;79.36;102667.69;5080170;28;20020;-70
2021/11/16 03:31:21;;;;;;;0.20;0.20;;;;;;;4.01;79.16;102665.88;5080516;28;20078;-72
2021/11/16 03:33:48;;;;;;;0.20;0.20;;;;;;;3.99;78.72;102665.72;5080066;28;20402;-71
2021/11/16 03:36:14;;;;;;;0.30;0.30;;;;;;;4.01;79.29;102664.94;5060242;28;20044;-73
2021/11/16 03:38:40;;;;;;;0.20;0.20;;;;;;;3.99;78.97;102665.72;5059335;28;20399;-73
2021/11/16 03:41:06;;;;;;;0.20;0.20;;;;;;;3.99;79.57;102657.94;5042504;28;20082;-71
2021/11/16 03:43:33;;;;;;;0.30;0.30;;;;;;;4.01;80.06;102668.47;5060363;28;20423;-72
2021/11/16 03:45:59;;;;;;;0.20;0.20;;;;;;;4.03;79.58;102671.19;5078151;28;20032;-72
2021/11/16 03:48:26;;;;;;;0.20;0.20;;;;;;;4.02;79.72;102670.25;5062370;28;20024;-72
2021/11/16 03:50:51;;;;;;;0.20;0.20;;;;;;;4.02;80.04;102678.03;5079547;28;20066;-71
2021/11/16 03:53:16;;;;;;;0.30;0.30;;;;;;;4.02;79.17;102677.13;5079824;28;20056;-71
2021/11/16 03:55:43;;;;;;;0.20;0.20;;;;;;;4.01;80.09;102668.47;5079840;28;20025;-71
2021/11/16 03:58:11;;;;;;;0.20;0.20;;;;;;;4.02;79.78;102675.44;5079667;28;20043;-71
2021/11/16 04:00:43;;;;;;;0.30;0.30;;;;;;;4.03;79.37;102676.38;5079635;28;20367;-71
2021/11/16 04:03:09;;;;;;;0.20;0.20;;;;;;;4.02;79.89;102672.84;5078161;28;20040;-72
2021/11/16 04:05:36;;;;;;;0.20;0.20;;;;;;;4.03;80.42;102681.56;5079857;28;20264;-71
2021/11/16 04:08:02;;;;;;;0.30;0.30;;;;;;;4.02;79.86;102684.91;5079317;28;20107;-71
2021/11/16 04:10:28;;;;;;;0.30;0.30;;;;;;;4.02;80.18;102680.63;5079805;28;20020;-71
2021/11/16 04:12:53;;;;;;;0.23;0.23;;;;;;;4.02;79.87;102682.31;5062171;28;20025;-72
2021/11/16 04:15:22;;;;;;;0.10;0.10;;;;;;;4.03;80.17;102690.22;5078683;28;20292;-72
2021/11/16 04:17:48;;;;;;;0.30;0.30;;;;;;;4.03;80.47;102691.94;5079781;28;20020;-72
2021/11/16 04:20:19;;;;;;;0.67;0.67;;;;;;;4.03;80.30;102692.81;5078472;28;20428;-71
2021/11/16 04:22:45;;;;;;;0.20;0.20;;;;;;;4.03;80.15;102684.16;5079534;28;20028;-72
2021/11/16 04:25:12;;;;;;;0.30;0.30;;;;;;;4.01;79.85;102681.41;5078515;28;20036;-72
2021/11/16 04:27:38;;;;;;;0.33;0.33;;;;;;;3.99;79.69;102678.69;5079682;28;20108;-71
2021/11/16 04:30:05;;;;;;;0.70;0.70;;;;;;;3.99;80.17;102683.88;5078450;28;20052;-72
2021/11/16 04:32:31;;;;;;;0.47;0.47;;;;;;;3.98;79.33;102686.31;5079322;28;20025;-72
2021/11/16 04:34:56;;;;;;;0.30;0.30;;;;;;;3.97;79.59;102675.06;5078609;28;20034;-72
2021/11/16 04:37:22;;;;;;;0.40;0.40;;;;;;;4.00;80.18;102674.44;5078775;28;20471;-72
2021/11/16 04:39:48;;;;;;;0.20;0.20;;;;;;;4.00;79.94;102669.25;5079201;28;20024;-71
2021/11/16 04:42:13;;;;;;;0.93;0.93;;;;;;;3.99;79.29;102677.81;5078248;28;20068;-73
2021/11/16 04:44:38;;;;;;;0.27;0.27;;;;;;;3.98;79.53;102676.88;5079085;28;20029;-72
2021/11/16 04:47:04;;;;;;;0.23;0.23;;;;;;;3.99;79.43;102676.09;5061540;28;20040;-73
2021/11/16 04:49:41;;;;;;;0.30;0.30;;;;;;;4.00;79.64;102677.03;5077845;28;20047;-71
2021/11/16 04:52:16;;;;;;;0.20;0.20;;;;;;;4.01;79.99;102676.25;5062735;28;20020;-72
2021/11/16 04:55:06;;;;;;;0.50;0.50;;;;;;;4.00;78.90;102674.44;5078988;28;20024;-71
2021/11/16 05:02:41;;;;;;;0.33;0.33;;;;;;;3.93;78.27;102667.78;5078813;28;20112;-71
2021/11/16 05:05:16;;;;;;;0.20;0.20;;;;;;;3.94;79.05;102663.53;5077885;28;20048;-72
2021/11/16 05:07:50;;;;;;;0.10;0.10;;;;;;;3.94;79.02;102658.34;5078768;28;20047;-72
2021/11/16 05:10:16;;;;;;;0.10;0.10;;;;;;;3.93;78.74;102659.13;5078090;28;20074;-71
2021/11/16 05:12:41;;;;;;;0.30;0.30;;;;;;;3.94;78.75;102663.53;5060797;28;20029;-72
2021/11/16 05:15:10;;;;;;;0.20;0.20;;;;;;;3.92;78.74;102654.72;5078221;28;20111;-71
2021/11/16 05:17:36;;;;;;;0.27;0.27;;;;;;;3.92;78.74;102652.13;5044404;28;20082;-71
2021/11/16 05:20:05;;;;;;;0.20;0.20;;;;;;;3.90;78.66;102649.41;5077592;28;20036;-71
2021/11/16 05:22:30;;;;;;;0.30;0.30;;;;;;;3.91;78.32;102656.41;5060011;28;20357;-72
2021/11/16 05:24:56;;;;;;;0.20;0.20;;;;;;;3.91;78.46;102655.50;5077859;28;20020;-71
2021/11/16 05:27:21;;;;;;;0.20;0.20;;;;;;;3.89;78.55;102649.25;5077488;28;20032;-71
2021/11/16 05:29:49;;;;;;;0.10;0.10;;;;;;;3.87;78.59;102643.97;5077934;28;20017;-72
2021/11/16 05:32:14;;;;;;;0.90;0.43;;;;;;;3.89;78.91;102657.03;5077545;28;20024;-71
2021/11/16 05:34:40;;;;;;;0.10;0.10;;;;;;;3.88;79.30;102653.56;5060366;28;20387;-70
2021/11/16 05:37:05;;;;;;;0.10;0.10;;;;;;;3.90;79.24;102653.66;5077854;28;20029;-71
2021/11/16 05:39:31;;;;;;;0.23;0.23;;;;;;;3.90;78.94;102656.25;5059183;28;20055;-71
2021/11/16 05:41:56;;;;;;;0.20;0.20;;;;;;;3.89;78.46;102664.81;5060078;28;20383;-71
2021/11/16 05:44:21;;;;;;;0.20;0.20;;;;;;;3.88;79.18;102653.56;5060677;28;20047;-71
2021/11/16 05:46:47;;;;;;;0.23;0.23;;;;;;;3.89;79.01;102659.63;5077745;28;20043;-70
2021/11/16 05:49:12;;;;;;;0.20;0.20;;;;;;;3.89;79.27;102651.84;5076918;28;20028;-71
2021/11/16 05:51:38;;;;;;;0.93;0.93;;;;;;;3.88;78.53;102644.84;5078048;28;20403;-71
2021/11/16 05:54:03;;;;;;;0.23;0.23;;;;;;;3.87;78.32;102646.56;5059644;28;20024;-71
2021/11/16 05:56:31;;;;;;;0.30;0.30;;;;;;;3.85;78.27;102654.19;5077794;28;20024;-70
2021/11/16 05:58:57;;;;;;;0.10;0.10;;;;;;;3.85;79.54;102654.19;5059225;28;20082;-71
2021/11/16 06:01:25;;;;;;;0.27;0.27;;;;;;;3.87;79.00;102659.53;5077425;28;20029;-71
2021/11/16 06:03:53;;;;;;;0.20;0.20;;;;;;;3.86;78.35;102652.50;5076977;28;20608;-71
2021/11/16 06:06:23;;;;;;;0.13;0.13;;;;;;;3.87;79.40;102656.94;5077560;28;20072;-71
2021/11/16 06:08:49;;;;;;;0.10;0.10;;;;;;;3.84;78.68;102652.38;5059850;28;20036;-71
2021/11/16 06:11:18;;;;;;;0.20;0.20;;;;;;;3.83;78.17;102645.38;5076429;28;20039;-70
2021/11/16 06:13:45;;;;;;;0.20;0.20;;;;;;;3.84;79.75;102654.97;5077436;28;20271;-70
2021/11/16 06:16:11;;;;;;;0.20;0.20;;;;;;;3.84;79.65;102654.97;5077127;28;20343;-70
2021/11/16 06:18:36;;;;;;;0.30;0.30;;;;;;;3.85;79.70;102640.31;5076949;28;20104;-70
2021/11/16 06:21:02;;;;;;;0.20;0.20;;;;;;;3.87;80.01;102640.44;5076785;28;20068;-71
2021/11/16 06:23:27;;;;;;;0.20;0.20;;;;;;;3.84;79.55;102638.50;5059970;28;20020;-71
2021/11/16 06:25:52;;;;;;;0.20;0.20;;;;;;;3.83;78.95;102640.22;5059673;28;20272;-71
2021/11/16 06:28:18;;;;;;;0.10;0.10;;;;;;;3.84;79.28;102638.50;5059671;28;20063;-71
2021/11/16 06:30:43;;;;;;;0.10;0.10;;;;;;;3.84;79.54;102634.25;5077126;28;20021;-71
2021/11/16 06:33:09;;;;;;;0.20;0.20;;;;;;;3.85;79.45;102636.06;5075957;28;20024;-71
2021/11/16 06:35:34;;;;;;;0.20;0.20;;;;;;;3.84;78.73;102635.91;5077227;28;20024;-70
2021/11/16 06:37:59;;;;;;;0.30;0.30;;;;;;;3.81;78.66;102639.16;5076209;28;20032;-70
2021/11/16 06:40:26;;;;;;;0.30;0.30;;;;;;;3.80;79.10;102645.09;5076675;28;20032;-70
2021/11/16 06:42:52;;;;;;;0.20;0.20;;;;;;;3.78;78.51;102633.72;5077136;28;20294;-70
2021/11/16 06:45:18;;;;;;;0.17;0.17;;;;;;;3.78;79.26;102631.13;5042953;28;20027;-71
2021/11/16 06:47:43;;;;;;;0.30;0.30;;;;;;;3.78;79.43;102636.31;5077298;28;20020;-72
2021/11/16 06:50:09;;;;;;;0.17;0.17;;;;;;;3.75;78.55;102628.28;5058048;28;20033;-70
2021/11/16 06:52:36;;;;;;;0.20;0.20;;;;;;;3.75;78.82;102633.47;5077047;28;20028;-71
2021/11/16 06:55:07;;;;;;;0.20;0.20;;;;;;;3.75;79.26;102625.69;5059086;28;20036;-70
2021/11/16 06:57:33;;;;;;;0.20;0.20;;;;;;;3.78;79.74;102632.78;5059689;28;20040;-70
2021/11/16 06:59:58;;;;;;;0.27;0.27;;;;;;;3.79;79.79;102634.63;5076080;28;20025;-70
2021/11/16 07:02:27;;;;;;;0.20;0.20;;;;;;;3.80;80.12;102629.56;5069704;28;20037;-70
2021/11/16 07:04:52;;;;;;;0.20;0.20;;;;;;;3.81;79.71;102630.47;5076151;28;20069;-70
2021/11/16 07:07:18;;;;;;;0.27;0.27;;;;;;;3.83;79.90;102632.44;5077229;28;20111;-70
2021/11/16 07:09:44;;;;;;;0.40;0.40;;;;;;;3.83;79.38;102632.44;5059112;28;20055;-71
2021/11/16 07:12:18;;;;;;;0.20;0.20;;;;;;;3.83;79.37;102639.28;5075850;28;20039;-70
2021/11/16 07:14:44;;;;;;;0.30;0.30;;;;;;;3.82;79.26;102630.63;5062643;28;20024;-71
2021/11/16 07:17:12;;;;;;;0.20;0.20;;;;;;;3.83;79.21;102629.84;5075935;28;20030;-70
2021/11/16 07:19:59;;;;;;;0.10;0.10;;;;;;;3.85;79.59;102632.53;5074445;28;20298;-71
2021/11/16 07:22:26;;;;;;;0.40;0.40;;;;;;;3.83;79.04;102628.91;5056627;28;20074;-72
2021/11/16 07:24:56;;;;;;;0.10;0.10;;;;;;;3.85;79.47;102624.75;5070193;28;20307;-71
2021/11/16 07:27:31;;;;;;;0.30;0.30;;;;;;;3.84;79.69;102622.94;5078813;28;20054;-71
2021/11/16 07:29:58;;;;;;;0.23;0.23;;;;;;;3.85;79.09;102629.94;5071742;28;20062;-71
2021/11/16 07:32:30;;;;;;;0.30;0.30;;;;;;;3.83;79.21;102628.91;5075469;28;20040;-71
2021/11/16 07:35:02;;;;;;;0.23;0.23;;;;;;;3.83;79.28;102629.84;5057783;28;20021;-70
2021/11/16 07:37:30;;;;;;;0.23;0.23;;;;;;;3.84;79.14;102636.84;5075472;28;20089;-71
2021/11/16 07:39:58;;;;;;;0.20;0.20;;;;;;;3.85;79.05;102633.47;5056316;28;20025;-71
2021/11/16 07:42:27;;;;;;;0.20;0.20;;;;;;;3.84;79.02;102628.13;5075778;28;20117;-72
2021/11/16 07:45:14;;;;;;;0.20;0.20;;;;;;;3.85;79.71;102629.94;5076229;28;20055;-71
2021/11/16 07:47:47;;;;;;;0.20;0.20;;;;;;;3.84;79.36;102630.72;5073268;28;20395;-71
2021/11/16 07:50:36;;;;;;;0.93;0.93;;;;;;;3.84;78.86;102636.84;5058849;28;20040;-71
2021/11/16 07:53:07;;;;;;;0.10;0.10;;;;;;;3.82;78.07;102643.59;5079720;28;20368;-71
2021/11/16 07:55:33;;;;;;;0.30;0.30;;;;;;;3.81;78.01;102643.44;5080401;28;20264;-71
2021/11/16 07:58:04;;;;;;;0.30;0.30;;;;;;;3.83;79.30;102639.28;5078324;28;20045;-71
2021/11/16 08:00:30;;;;;;;0.20;0.20;;;;;;;3.83;79.46;102640.22;5079821;28;20035;-71
2021/11/16 08:03:02;;;;;;;0.20;0.20;;;;;;;3.85;79.69;102641.22;5079548;28;20032;-71
2021/11/16 08:05:36;;;;;;;0.30;0.30;;;;;;;3.84;78.96;102638.50;5080182;28;20071;-72
2021/11/16 08:08:32;;;;;;;0.10;0.10;;;;;;;3.84;78.73;102636.84;5079108;28;20028;-71
2021/11/16 08:14:09;;;;;;;0.20;0.20;;;;;;;3.84;77.60;102635.91;5079439;28;20040;-71
2021/11/16 08:16:38;;;;;;;0.20;0.20;;;;;;;3.83;77.52;102628.91;5079121;28;20027;-71
2021/11/16 08:19:08;;;;;;;0.20;0.20;;;;;;;3.82;78.06;102625.44;5061444;28;20033;-71
2021/11/16 08:21:41;;;;;;;0.20;0.20;;;;;;;3.84;78.90;102628.13;5079211;28;20043;-71
2021/11/16 08:24:09;;;;;;;2.70;2.50;;;;;;;3.87;78.95;102622.31;5078913;28;20017;-71
2021/11/16 08:26:47;;;;;;;0.30;0.30;;;;;;;3.90;78.80;102619.97;5079237;28;20047;-71
2021/11/16 08:29:15;;;;;;;0.30;0.30;;;;;;;3.90;78.78;102615.69;5078972;28;20398;-71
2021/11/16 08:31:48;;;;;;;0.60;0.60;;;;;;;3.96;78.04;102611.03;5062108;28;20020;-71
2021/11/16 08:34:14;;;;;;;0.20;0.20;;;;;;;3.94;77.58;102615.16;5077745;28;20036;-71
2021/11/16 08:36:51;;;;;;;0.20;0.20;;;;;;;3.95;78.05;102617.00;5079111;28;20016;-70
2021/11/16 08:39:19;;;;;;;0.20;0.20;;;;;;;3.97;78.14;102615.44;5079087;28;20027;-71
2021/11/16 08:41:44;;;;;;;0.30;0.30;;;;;;;3.98;77.57;102617.25;5078852;28;20051;-71
2021/11/16 08:44:22;;;;;;;0.20;0.20;;;;;;;3.99;78.26;102618.16;5061269;28;20817;-70
2021/11/16 08:46:49;;;;;;;0.30;0.30;;;;;;;3.99;78.04;102613.00;5079009;28;20450;-70
2021/11/16 08:49:31;;;;;;;0.30;0.30;;;;;;;4.01;77.80;102603.66;5077535;28;20025;-71
2021/11/16 08:51:59;;;;;;;0.20;0.20;;;;;;;3.99;77.92;102613.88;5078655;28;20036;-71
2021/11/16 08:54:35;;;;;;;0.30;0.30;;;;;;;4.03;78.15;102608.97;5078481;28;20028;-71
2021/11/16 08:57:04;;;;;;;0.30;0.30;;;;;;;4.05;77.93;102613.47;5061271;28;20024;-71
2021/11/16 08:59:34;;;;;;;0.30;0.30;;;;;;;4.06;77.55;102614.41;5078272;28;20028;-71
2021/11/16 09:02:02;;;;;;;0.30;0.30;;;;;;;4.07;78.66;102604.16;5078569;28;20028;-71
2021/11/16 09:04:33;;;;;;;0.33;0.33;;;;;;;4.08;78.45;102602.47;5060503;28;20047;-71
2021/11/16 09:07:00;;;;;;;0.30;0.30;;;;;;;4.09;78.27;102604.25;5077881;28;20040;-71
2021/11/16 09:09:26;;;;;;;0.20;0.20;;;;;;;4.11;77.56;102607.91;5078361;28;20032;-70
2021/11/16 09:11:58;;;;;;;0.63;0.63;;;;;;;4.11;76.50;102610.50;5078282;28;20025;-71
2021/11/16 09:14:23;;;;;;;0.93;0.93;;;;;;;4.10;77.96;102596.63;5078181;28;20036;-71
2021/11/16 09:16:49;;;;;;;0.30;0.30;;;;;;;4.12;76.82;102600.25;5078326;28;20033;-72
2021/11/16 09:19:34;;;;;;;0.20;0.20;;;;;;;4.12;77.66;102599.34;5060129;28;20082;-71
2021/11/16 09:22:00;;;;;;;2.47;0.97;;;;;;;4.12;78.23;102607.13;5060707;28;20102;-71
2021/11/16 09:24:37;;;;;;;0.20;0.20;;;;;;;4.14;78.34;102602.97;5077484;28;20446;-70
2021/11/16 09:29:32;;;;;;;0.10;0.10;;;;;;;4.16;78.11;102603.13;5078116;28;20093;-69
2021/11/16 09:32:01;;;;;;;0.30;0.30;;;;;;;4.16;78.27;102606.59;5077769;28;20108;-71
2021/11/16 09:34:30;;;;;;;0.30;0.30;;;;;;;4.18;78.54;102602.44;5059814;28;20028;-71
2021/11/16 09:36:59;;;;;;;0.20;0.20;;;;;;;4.21;78.05;102604.38;5077586;28;20036;-71
2021/11/16 09:39:29;;;;;;;0.20;0.20;;;;;;;4.22;78.19;102601.00;5077717;28;20033;-72
2021/11/16 09:41:54;;;;;;;0.10;0.10;;;;;;;4.25;77.31;102607.34;5077150;28;20043;-71
2021/11/16 09:44:28;;;;;;;0.30;0.30;;;;;;;4.24;77.57;102602.06;5060389;28;20029;-71
2021/11/16 09:47:01;;;;;;;0.20;0.20;;;;;;;4.26;78.53;102601.38;5073994;28;20039;-71
2021/11/16 09:49:35;;;;;;;0.20;0.20;;;;;;;4.28;78.26;102592.84;5076954;28;20035;-71
2021/11/16 09:52:04;;;;;;;0.10;0.10;;;;;;;4.31;78.33;102595.69;5077557;28;20051;-71
2021/11/16 09:54:29;;;;;;;0.20;0.20;;;;;;;4.31;78.40;102588.81;5077358;28;20402;-72
2021/11/16 09:57:12;;;;;;;0.27;0.27;;;;;;;4.34;78.03;102588.13;5039516;28;20041;-71
2021/11/16 09:59:40;;;;;;;0.20;0.20;;;;;;;4.35;78.03;102588.28;5076127;28;20031;-70
2021/11/16 10:02:06;;;;;;;0.23;0.23;;;;;;;4.38;78.10;102591.09;5059804;28;20033;-72
2021/11/16 10:04:35;;;;;;;0.20;0.20;;;;;;;4.40;77.81;102586.06;5076998;28;20039;-70
2021/11/16 10:07:01;;;;;;;0.30;0.30;;;;;;;4.40;77.44;102576.59;5077074;28;20032;-71
2021/11/16 10:09:26;;;;;;;0.20;0.20;;;;;;;4.37;77.79;102584.09;5059238;28;20035;-70
2021/11/16 10:11:53;;;;;;;0.30;0.30;;;;;;;4.35;77.11;102577.91;5077217;28;20378;-70
2021/11/16 10:14:21;;;;;;;0.20;0.20;;;;;;;4.35;77.50;102567.53;5076762;28;20067;-71
2021/11/16 10:16:47;;;;;;;0.60;0.60;;;;;;;4.35;77.34;102572.72;5071732;28;20032;-72
2021/11/16 10:19:13;;;;;;;0.20;0.20;;;;;;;4.38;78.11;102565.16;5070774;28;20028;-71
2021/11/16 10:21:39;;;;;;;0.20;0.20;;;;;;;4.40;77.64;102565.28;5053833;28;20425;-71
2021/11/16 10:24:32;;;;;;;0.20;0.20;;;;;;;4.39;77.51;102561.81;5056945;28;20047;-71
2021/11/16 10:27:03;;;;;;;0.50;0.50;;;;;;;4.40;77.43;102558.44;5073406;28;20074;-71
2021/11/16 10:29:30;;;;;;;0.20;0.20;;;;;;;4.39;77.58;102567.00;5059367;28;20099;-70
2021/11/16 10:31:56;;;;;;;0.20;0.20;;;;;;;4.38;77.98;102565.16;5076902;28;20028;-71
2021/11/16 10:34:36;;;;;;;0.30;0.30;;;;;;;4.36;77.07;102558.06;5076283;28;20052;-72
2021/11/16 10:37:06;;;;;;;0.20;0.20;;;;;;;4.34;77.70;102559.59;5059507;28;20029;-72
2021/11/16 10:39:31;;;;;;;0.20;0.20;;;;;;;4.36;77.58;102561.53;5076638;28;20025;-71
2021/11/16 10:41:58;;;;;;;0.30;0.30;;;;;;;4.35;77.69;102561.44;5076768;28;20043;-72
2021/11/16 10:44:24;;;;;;;0.20;0.20;;;;;;;4.33;77.85;102565.56;5076857;28;20113;-72
2021/11/16 10:46:49;;;;;;;0.20;0.20;;;;;;;4.39;77.65;102566.09;5056442;28;20048;-71
2021/11/16 10:49:16;;;;;;;0.20;0.20;;;;;;;4.39;77.41;102559.22;5056150;28;20371;-74
2021/11/16 10:51:44;;;;;;;0.20;0.20;;;;;;;4.44;77.59;102550.88;5039657;28;20111;-72
2021/11/16 10:54:12;;;;;;;0.30;0.30;;;;;;;4.47;77.75;102551.13;5070046;28;20315;-71
2021/11/16 10:56:38;;;;;;;0.30;0.30;;;;;;;4.50;77.70;102551.38;5076006;28;20107;-72
2021/11/16 10:59:20;;;;;;;0.20;0.20;;;;;;;4.53;77.85;102538.66;5065827;28;20125;-72
2021/11/16 11:01:49;;;;;;;0.30;0.30;;;;;;;4.55;77.21;102529.31;5055014;28;20025;-73
2021/11/16 11:04:38;;;;;;;0.20;0.20;;;;;;;4.55;77.34;102521.53;5040848;28;20485;-72
2021/11/16 11:07:11;;;;;;;0.30;0.30;;;;;;;4.54;76.96;102523.22;5072058;28;20134;-72
2021/11/16 11:09:36;;;;;;;0.30;0.30;;;;;;;4.57;78.26;102516.44;5059283;28;20044;-72
2021/11/16 11:12:02;;;;;;;0.30;0.30;;;;;;;4.59;78.46;102509.69;5076426;28;20044;-73
2021/11/16 11:14:37;;;;;;;0.20;0.20;;;;;;;4.62;77.97;102509.94;5076462;28;20028;-72
2021/11/16 11:17:07;;;;;;;0.40;0.40;;;;;;;4.63;77.60;102507.50;5059073;28;20082;-72
2021/11/16 11:19:37;;;;;;;0.20;0.20;;;;;;;4.65;77.66;102505.00;5058796;28;20024;-72
2021/11/16 11:22:11;;;;;;;0.20;0.20;;;;;;;4.68;78.21;102505.25;5059017;28;20020;-73
2021/11/16 11:24:48;;;;;;;0.27;0.27;;;;;;;4.67;78.41;102501.75;5058226;28;20050;-72
2021/11/16 11:29:47;;;;;;;0.23;0.23;;;;;;;4.71;77.80;102491.59;5079890;28;20087;-72
2021/11/16 11:32:17;;;;;;;0.37;0.37;;;;;;;4.74;77.92;102492.75;5062912;28;20103;-73
2021/11/16 11:34:46;;;;;;;0.20;0.20;;;;;;;4.70;77.83;102489.78;5075525;28;20076;-72
2021/11/16 11:37:24;;;;;;;0.10;0.10;;;;;;;4.71;77.40;102483.81;5066481;28;20033;-73
2021/11/16 11:40:03;;;;;;;0.20;0.20;;;;;;;4.72;77.87;102480.44;5067137;28;20086;-72
2021/11/16 11:42:33;;;;;;;0.20;0.20;;;;;;;4.72;78.30;102473.56;5071319;28;20034;-73
2021/11/16 11:45:10;;;;;;;0.30;0.30;;;;;;;4.72;78.24;102473.56;5062509;28;20058;-73
2021/11/16 11:47:40;;;;;;;0.20;0.20;;;;;;;4.75;78.05;102471.22;5079909;28;20116;-73
2021/11/16 11:50:30;;;;;;;0.20;0.20;;;;;;;4.76;77.79;102470.44;5079353;28;20064;-73
2021/11/16 11:52:58;;;;;;;0.30;0.30;;;;;;;4.71;78.17;102463.03;5067623;28;20049;-72